createdAt,value
2023-10-06T00:00:33.295Z,15.50
2023-10-06T00:03:07.464Z,15.50
2023-10-06T00:05:35.639Z,15.50
2023-10-06T00:08:07.418Z,15.50
2023-10-06T00:10:36.821Z,15.50
2023-10-06T00:13:07.040Z,15.50
2023-10-06T00:15:41.049Z,15.50
2023-10-06T00:18:09.961Z,15.60
2023-10-06T00:20:40.781Z,15.50
2023-10-06T00:23:13.759Z,15.50
2023-10-06T00:25:44.726Z,15.50
2023-10-06T00:28:20.906Z,15.50
2023-10-06T00:30:49.652Z,15.50
2023-10-06T00:33:17.294Z,15.50
2023-10-06T00:35:45.528Z,15.50
2023-10-06T00:38:19.113Z,15.50
2023-10-06T00:40:52.398Z,15.50
2023-10-06T00:43:36.576Z,15.50
2023-10-06T00:46:08.391Z,15.60
2023-10-06T00:48:40.003Z,15.60
2023-10-06T00:51:21.252Z,15.60
2023-10-06T00:53:52.793Z,15.50
2023-10-06T00:56:24.868Z,15.60
2023-10-06T00:58:53.500Z,15.60
2023-10-06T01:01:22.530Z,15.60
2023-10-06T01:04:07.684Z,15.60
2023-10-06T01:06:42.314Z,15.60
2023-10-06T01:09:18.165Z,15.60
2023-10-06T01:11:51.937Z,15.70
2023-10-06T01:14:27.657Z,15.70
2023-10-06T01:17:11.368Z,15.70
2023-10-06T01:19:44.658Z,15.70
2023-10-06T01:22:30.202Z,15.70
2023-10-06T01:24:59.559Z,15.70
2023-10-06T01:27:27.555Z,15.80
2023-10-06T01:30:25.368Z,15.80
2023-10-06T01:32:53.195Z,15.80
2023-10-06T01:35:25.207Z,15.80
2023-10-06T01:38:01.374Z,15.80
2023-10-06T01:40:29.647Z,15.80
2023-10-06T01:42:57.987Z,15.80
2023-10-06T01:45:25.784Z,15.80
2023-10-06T01:47:57.197Z,15.80
2023-10-06T01:50:32.706Z,15.80
2023-10-06T01:53:06.363Z,15.90
2023-10-06T01:55:40.361Z,15.90
2023-10-06T01:58:12.602Z,15.80
2023-10-06T02:00:40.585Z,15.80
2023-10-06T02:03:11.951Z,15.80
2023-10-06T02:05:40.094Z,15.80
2023-10-06T02:08:11.014Z,15.70
2023-10-06T02:10:39.013Z,15.70
2023-10-06T02:13:07.196Z,15.70
2023-10-06T02:15:34.833Z,15.60
2023-10-06T02:18:02.452Z,15.60
2023-10-06T02:20:31.374Z,15.60
2023-10-06T02:23:04.612Z,15.60
2023-10-06T02:25:32.929Z,15.50
2023-10-06T02:28:06.356Z,15.50
2023-10-06T02:30:41.037Z,15.50
2023-10-06T02:33:09.383Z,15.50
2023-10-06T02:35:37.366Z,15.50
2023-10-06T02:38:07.245Z,15.50
2023-10-06T02:40:48.713Z,15.40
2023-10-06T02:43:17.637Z,15.40
2023-10-06T02:45:45.756Z,15.40
2023-10-06T02:48:17.175Z,15.40
2023-10-06T02:50:50.509Z,15.50
2023-10-06T02:53:22.165Z,15.50
2023-10-06T02:55:56.816Z,15.50
2023-10-06T02:58:31.566Z,15.50
2023-10-06T03:00:59.592Z,15.50
2023-10-06T03:03:34.693Z,15.50
2023-10-06T03:06:08.639Z,15.50
2023-10-06T03:08:43.006Z,15.50
2023-10-06T03:11:13.443Z,15.50
2023-10-06T03:13:44.847Z,15.50
2023-10-06T03:16:16.590Z,15.50
2023-10-06T03:18:45.750Z,15.50
2023-10-06T03:21:13.433Z,15.50
2023-10-06T03:23:45.246Z,15.60
2023-10-06T03:26:30.659Z,15.60
2023-10-06T03:29:12.593Z,15.60
2023-10-06T03:31:46.617Z,15.60
2023-10-06T03:34:23.923Z,15.60
2023-10-06T03:36:54.557Z,15.60
2023-10-06T03:39:31.830Z,15.60
2023-10-06T03:42:02.202Z,15.60
2023-10-06T03:44:31.890Z,15.60
2023-10-06T03:47:03.051Z,15.60
2023-10-06T03:49:35.012Z,15.50
2023-10-06T03:52:10.409Z,15.50
2023-10-06T03:54:38.006Z,15.60
2023-10-06T03:57:05.740Z,15.60
2023-10-06T03:59:33.757Z,15.60
2023-10-06T04:02:04.197Z,15.60
2023-10-06T04:04:31.855Z,15.60
2023-10-06T04:06:59.772Z,15.60
2023-10-06T04:09:32.018Z,15.60
2023-10-06T04:12:02.412Z,15.60
2023-10-06T04:14:33.125Z,15.60
2023-10-06T04:17:02.730Z,15.60
2023-10-06T04:19:30.486Z,15.70
2023-10-06T04:21:58.007Z,15.60
2023-10-06T04:24:25.601Z,15.60
2023-10-06T04:26:53.221Z,15.60
2023-10-06T04:29:21.079Z,15.60
2023-10-06T04:31:48.995Z,15.60
2023-10-06T04:34:16.641Z,15.60
2023-10-06T04:36:44.239Z,15.70
2023-10-06T04:39:17.064Z,15.70
2023-10-06T04:41:44.659Z,15.70
2023-10-06T04:44:12.174Z,15.70
2023-10-06T04:46:40.978Z,15.70
2023-10-06T04:49:08.770Z,15.70
2023-10-06T04:51:36.685Z,15.70
2023-10-06T04:54:09.347Z,15.70
2023-10-06T04:56:37.271Z,15.60
2023-10-06T04:59:07.379Z,15.60
2023-10-06T05:01:35.409Z,15.60
2023-10-06T05:04:07.425Z,15.60
2023-10-06T05:06:35.102Z,15.60
2023-10-06T05:09:03.952Z,15.60
2023-10-06T05:11:33.894Z,15.60
2023-10-06T05:14:02.559Z,15.60
2023-10-06T05:16:30.208Z,15.60
2023-10-06T05:18:58.026Z,15.50
2023-10-06T05:21:25.609Z,15.50
2023-10-06T05:23:54.466Z,16.20
2023-10-06T05:26:22.354Z,15.50
2023-10-06T05:28:51.809Z,15.50
2023-10-06T05:31:19.659Z,15.50
2023-10-06T05:33:47.370Z,15.50
2023-10-06T05:36:18.281Z,15.50
2023-10-06T05:38:48.841Z,15.60
2023-10-06T05:41:16.938Z,15.50
2023-10-06T05:43:44.884Z,15.50
2023-10-06T05:46:12.805Z,15.50
2023-10-06T05:48:41.312Z,15.50
2023-10-06T05:51:16.128Z,15.50
2023-10-06T05:53:45.704Z,15.50
2023-10-06T05:56:13.747Z,15.50
2023-10-06T05:58:42.384Z,15.50
2023-10-06T06:01:19.815Z,15.30
2023-10-06T06:03:48.737Z,15.50
2023-10-06T06:06:22.793Z,15.60
2023-10-06T06:08:50.455Z,15.60
2023-10-06T06:11:18.506Z,15.60
2023-10-06T06:13:52.916Z,15.60
2023-10-06T06:16:23.676Z,15.60
2023-10-06T06:18:52.110Z,15.60
2023-10-06T06:21:26.122Z,15.60
2023-10-06T06:23:58.360Z,15.60
2023-10-06T06:26:26.437Z,15.60
2023-10-06T06:28:54.734Z,15.70
2023-10-06T06:31:22.916Z,15.70
2023-10-06T06:33:57.713Z,15.70
2023-10-06T06:36:27.627Z,15.70
2023-10-06T06:38:55.570Z,15.70
2023-10-06T06:41:23.217Z,15.70
2023-10-06T06:43:55.714Z,15.70
2023-10-06T06:46:23.514Z,15.70
2023-10-06T06:48:51.020Z,15.80
2023-10-06T06:51:19.775Z,15.80
2023-10-06T06:53:48.643Z,15.80
2023-10-06T06:56:18.339Z,15.80
2023-10-06T06:58:47.749Z,15.90
2023-10-06T07:01:16.229Z,15.90
2023-10-06T07:03:44.148Z,15.90
2023-10-06T07:06:18.382Z,15.90
2023-10-06T07:08:48.013Z,15.90
2023-10-06T07:11:16.954Z,16.00
2023-10-06T07:13:46.844Z,16.00
2023-10-06T07:16:15.807Z,16.00
2023-10-06T07:18:43.948Z,16.00
2023-10-06T07:21:12.274Z,16.00
2023-10-06T07:23:40.312Z,16.10
2023-10-06T07:26:17.249Z,16.10
2023-10-06T07:28:46.138Z,16.10
2023-10-06T07:31:18.112Z,16.10
2023-10-06T07:33:45.980Z,16.20
2023-10-06T07:36:18.956Z,16.20
2023-10-06T07:38:47.734Z,16.30
2023-10-06T07:41:24.722Z,16.30
2023-10-06T07:43:52.966Z,16.40
2023-10-06T07:46:20.633Z,16.40
2023-10-06T07:48:48.465Z,16.40
2023-10-06T07:51:17.583Z,16.40
2023-10-06T07:53:45.422Z,16.50
2023-10-06T07:56:14.527Z,16.50
2023-10-06T07:58:45.187Z,16.60
2023-10-06T08:01:14.677Z,16.60
2023-10-06T08:03:42.948Z,16.70
2023-10-06T08:06:15.149Z,16.80
2023-10-06T08:08:43.278Z,16.80
2023-10-06T08:11:11.045Z,16.90
2023-10-06T08:13:39.510Z,16.90
2023-10-06T08:16:13.293Z,17.00
2023-10-06T08:18:41.172Z,17.00
2023-10-06T08:21:08.696Z,17.10
2023-10-06T08:23:36.940Z,17.10
2023-10-06T08:26:09.270Z,17.20
2023-10-06T08:28:37.235Z,17.30
2023-10-06T08:31:05.557Z,17.40
2023-10-06T08:33:34.255Z,17.50
2023-10-06T08:36:03.240Z,17.60
2023-10-06T08:38:33.342Z,17.80
2023-10-06T08:41:05.609Z,17.90
2023-10-06T08:43:37.519Z,17.90
2023-10-06T08:46:05.595Z,18.10
2023-10-06T08:48:36.861Z,18.10
2023-10-06T08:51:12.481Z,18.10
2023-10-06T08:53:43.633Z,18.10
2023-10-06T08:56:16.543Z,18.10
2023-10-06T08:58:45.539Z,18.00
2023-10-06T09:01:14.441Z,18.00
2023-10-06T09:03:42.280Z,18.00
2023-10-06T09:06:12.799Z,18.00
2023-10-06T09:08:43.315Z,17.90
2023-10-06T09:11:11.626Z,17.90
2023-10-06T09:13:39.571Z,18.00
2023-10-06T09:16:11.533Z,18.00
2023-10-06T09:18:42.460Z,18.10
2023-10-06T09:21:17.613Z,18.20
2023-10-06T09:23:45.826Z,18.20
2023-10-06T09:26:20.286Z,18.20
2023-10-06T09:28:54.267Z,18.30
2023-10-06T09:31:39.101Z,18.30
2023-10-06T09:34:09.231Z,18.70
2023-10-06T09:36:44.432Z,18.80
2023-10-06T09:39:17.028Z,18.90
2023-10-06T09:41:45.764Z,19.10
2023-10-06T09:44:14.413Z,19.10
2023-10-06T09:46:45.161Z,19.20
2023-10-06T09:49:17.671Z,19.20
2023-10-06T09:51:47.179Z,19.30
2023-10-06T09:54:16.742Z,19.60
2023-10-06T09:56:48.087Z,19.90
2023-10-06T09:59:17.070Z,20.10
2023-10-06T10:01:47.750Z,20.10
2023-10-06T10:04:20.555Z,20.00
2023-10-06T10:06:49.104Z,20.00
2023-10-06T10:09:17.757Z,20.00
2023-10-06T10:12:10.368Z,19.90
2023-10-06T10:14:44.233Z,19.90
2023-10-06T10:17:21.633Z,19.90
2023-10-06T10:19:50.390Z,19.80
2023-10-06T10:22:19.568Z,19.80
2023-10-06T10:27:21.813Z,19.90
2023-10-06T10:32:24.454Z,20.20
2023-10-06T10:35:15.538Z,20.40
2023-10-06T10:38:04.298Z,20.40
2023-10-06T10:40:48.519Z,20.40
2023-10-06T10:43:17.246Z,20.30
2023-10-06T10:45:48.464Z,20.20
2023-10-06T10:48:17.082Z,20.10
2023-10-06T10:51:07.888Z,20.00
2023-10-06T10:53:43.261Z,20.00
2023-10-06T10:56:14.795Z,20.00
2023-10-06T10:58:45.507Z,20.20
2023-10-06T11:01:30.834Z,20.40
2023-10-06T11:04:19.950Z,20.80
2023-10-06T11:06:49.757Z,21.00
2023-10-06T11:09:38.067Z,21.00
2023-10-06T11:12:25.542Z,21.00
2023-10-06T11:14:55.096Z,21.00
2023-10-06T11:17:24.287Z,21.00
2023-10-06T11:20:14.461Z,21.00
2023-10-06T11:22:56.322Z,20.90
2023-10-06T11:25:30.184Z,20.90
2023-10-06T11:28:04.243Z,20.80
2023-10-06T11:30:39.831Z,20.80
2023-10-06T11:33:10.216Z,20.80
2023-10-06T11:35:40.199Z,20.80
2023-10-06T11:38:08.590Z,21.00
2023-10-06T11:40:39.060Z,21.20
2023-10-06T11:43:19.849Z,21.50
2023-10-06T11:45:47.982Z,21.60
2023-10-06T11:48:25.550Z,21.60
2023-10-06T11:51:10.299Z,21.80
2023-10-06T11:53:40.216Z,21.80
2023-10-06T11:56:13.579Z,21.70
2023-10-06T11:58:42.813Z,21.60
2023-10-06T12:01:38.165Z,21.40
2023-10-06T12:04:23.986Z,21.40
2023-10-06T12:06:52.604Z,21.20
2023-10-06T12:09:30.815Z,21.10
2023-10-06T12:12:01.190Z,21.10
2023-10-06T12:14:30.019Z,21.10
2023-10-06T12:16:57.763Z,21.20
2023-10-06T12:19:26.283Z,21.30
2023-10-06T12:21:53.871Z,21.30
2023-10-06T12:24:23.687Z,21.20
2023-10-06T12:26:51.654Z,21.20
2023-10-06T12:29:19.229Z,21.10
2023-10-06T12:31:47.923Z,21.00
2023-10-06T12:34:17.015Z,20.70
2023-10-06T12:36:48.515Z,20.90
2023-10-06T12:39:18.395Z,20.90
2023-10-06T12:41:47.737Z,20.80
2023-10-06T12:44:15.525Z,20.70
2023-10-06T12:46:43.219Z,20.50
2023-10-06T12:49:11.082Z,20.50
2023-10-06T12:51:42.990Z,19.90
2023-10-06T12:54:10.894Z,20.30
2023-10-06T12:56:38.690Z,20.20
2023-10-06T12:59:06.293Z,20.20
2023-10-06T13:01:34.318Z,20.20
2023-10-06T13:04:02.108Z,20.20
2023-10-06T13:06:31.378Z,20.20
2023-10-06T13:09:03.654Z,20.30
2023-10-06T13:11:31.672Z,20.50
2023-10-06T13:13:59.278Z,20.50
2023-10-06T13:16:26.956Z,20.50
2023-10-06T13:18:54.472Z,20.60
2023-10-06T13:21:22.141Z,20.50
2023-10-06T13:23:49.779Z,20.40
2023-10-06T13:26:35.863Z,20.50
2023-10-06T13:29:08.986Z,20.40
2023-10-06T13:31:38.268Z,20.30
2023-10-06T13:34:08.533Z,20.10
2023-10-06T13:36:36.417Z,20.10
2023-10-06T13:39:10.282Z,20.10
2023-10-06T13:41:42.888Z,20.10
2023-10-06T13:44:11.107Z,20.10
2023-10-06T13:46:38.943Z,20.10
2023-10-06T13:49:06.731Z,20.10
2023-10-06T13:51:35.510Z,20.00
2023-10-06T13:54:06.702Z,19.90
2023-10-06T13:56:35.460Z,19.90
2023-10-06T13:59:05.395Z,19.90
2023-10-06T14:01:36.450Z,19.90
2023-10-06T14:04:04.557Z,19.90
2023-10-06T14:06:32.367Z,19.90
2023-10-06T14:09:00.490Z,20.70
2023-10-06T14:11:31.558Z,20.00
2023-10-06T14:13:59.552Z,20.00
2023-10-06T14:16:27.696Z,19.90
2023-10-06T14:18:57.706Z,19.80
2023-10-06T14:21:25.731Z,19.70
2023-10-06T14:23:56.064Z,19.60
2023-10-06T14:26:24.468Z,19.60
2023-10-06T14:28:53.563Z,19.50
2023-10-06T14:31:27.220Z,19.40
2023-10-06T14:34:15.220Z,19.30
2023-10-06T14:36:44.873Z,19.20
2023-10-06T14:39:30.920Z,19.10
2023-10-06T14:42:01.295Z,19.00
2023-10-06T14:44:47.378Z,19.00
2023-10-06T14:47:15.104Z,18.90
2023-10-06T14:49:45.153Z,18.90
2023-10-06T14:52:14.356Z,18.90
2023-10-06T14:54:42.276Z,18.90
2023-10-06T14:57:10.296Z,18.90
2023-10-06T14:59:38.421Z,18.90
2023-10-06T15:02:11.156Z,17.20
2023-10-06T15:04:40.468Z,18.80
2023-10-06T15:07:10.343Z,18.70
2023-10-06T15:09:39.796Z,18.70
2023-10-06T15:12:07.872Z,18.60
2023-10-06T15:14:37.467Z,17.70
2023-10-06T15:17:06.463Z,18.60
2023-10-06T15:19:37.851Z,18.60
2023-10-06T15:22:09.467Z,18.60
2023-10-06T15:24:38.392Z,18.60
2023-10-06T15:27:07.979Z,18.60
2023-10-06T15:29:36.090Z,18.60
2023-10-06T15:32:05.848Z,18.70
2023-10-06T15:34:36.579Z,18.70
2023-10-06T15:37:05.930Z,18.70
2023-10-06T15:39:34.280Z,18.60
2023-10-06T15:42:02.485Z,17.20
2023-10-06T15:44:30.284Z,18.60
2023-10-06T15:46:58.620Z,18.60
2023-10-06T15:49:26.853Z,18.60
2023-10-06T15:51:54.494Z,18.60
2023-10-06T15:54:23.364Z,18.60
2023-10-06T15:56:52.007Z,18.60
2023-10-06T15:59:21.803Z,18.60
2023-10-06T16:01:50.259Z,18.60
2023-10-06T16:04:18.337Z,18.50
2023-10-06T16:06:47.925Z,18.50
2023-10-06T16:09:18.752Z,18.50
2023-10-06T16:11:47.251Z,18.50
2023-10-06T16:14:17.271Z,18.50
2023-10-06T16:16:49.350Z,18.50
2023-10-06T16:19:18.560Z,18.50
2023-10-06T16:21:46.378Z,18.50
2023-10-06T16:24:15.519Z,18.50
2023-10-06T16:26:44.268Z,18.40
2023-10-06T16:29:13.962Z,18.40
2023-10-06T16:31:42.224Z,18.40
2023-10-06T16:34:10.256Z,18.40
2023-10-06T16:36:40.075Z,18.40
2023-10-06T16:42:06.687Z,18.40
2023-10-06T16:44:34.325Z,18.40
2023-10-06T16:47:03.205Z,18.30
2023-10-06T16:49:30.869Z,18.30
2023-10-06T16:51:58.889Z,18.30
2023-10-06T16:54:26.459Z,18.30
2023-10-06T16:56:54.280Z,18.30
2023-10-06T16:59:21.857Z,18.30
2023-10-06T17:01:50.553Z,18.30
2023-10-06T17:04:19.588Z,18.30
2023-10-06T17:06:47.383Z,18.30
2023-10-06T17:09:15.888Z,18.30
2023-10-06T17:11:44.274Z,18.30
2023-10-06T17:14:13.224Z,18.30
2023-10-06T17:16:42.732Z,18.30
2023-10-06T17:19:13.480Z,18.30
2023-10-06T17:21:43.447Z,18.30
2023-10-06T17:24:12.427Z,18.30
2023-10-06T17:26:40.310Z,18.30
2023-10-06T17:29:08.462Z,18.30
2023-10-06T17:31:36.328Z,18.30
2023-10-06T17:34:05.783Z,18.30
2023-10-06T17:36:33.444Z,18.30
2023-10-06T17:39:03.288Z,18.20
2023-10-06T17:41:31.497Z,18.20
2023-10-06T17:43:59.161Z,18.10
2023-10-06T17:46:26.915Z,18.20
2023-10-06T17:48:55.025Z,18.10
2023-10-06T17:51:22.782Z,18.10
2023-10-06T17:53:50.865Z,18.10
2023-10-06T17:56:21.191Z,18.10
2023-10-06T17:58:51.094Z,18.00
2023-10-06T18:01:20.118Z,17.70
2023-10-06T18:03:48.950Z,18.00
2023-10-06T18:06:16.959Z,18.00
2023-10-06T18:08:44.472Z,18.00
2023-10-06T18:11:12.037Z,18.00
2023-10-06T18:13:40.959Z,18.00
2023-10-06T18:16:09.470Z,18.00
2023-10-06T18:18:41.817Z,18.00
2023-10-06T18:21:09.629Z,18.00
2023-10-06T18:23:37.155Z,18.00
2023-10-06T18:26:14.509Z,18.00
2023-10-06T18:28:42.449Z,18.00
2023-10-06T18:31:10.468Z,18.00
2023-10-06T18:33:39.415Z,18.00
2023-10-06T18:36:11.324Z,18.00
2023-10-06T18:38:39.471Z,18.00
2023-10-06T18:41:08.217Z,18.00
2023-10-06T18:43:36.013Z,18.00
2023-10-06T18:46:06.454Z,17.80
2023-10-06T18:48:34.323Z,18.00
2023-10-06T18:51:02.101Z,18.00
2023-10-06T18:53:30.418Z,18.00
2023-10-06T18:55:59.044Z,17.90
2023-10-06T18:58:28.280Z,17.90
2023-10-06T19:00:56.861Z,17.90
2023-10-06T19:03:24.864Z,17.90
2023-10-06T19:06:04.500Z,17.80
2023-10-06T19:08:44.698Z,18.00
2023-10-06T19:11:14.888Z,17.80
2023-10-06T19:13:42.670Z,17.80
2023-10-06T19:16:13.424Z,17.80
2023-10-06T19:18:43.852Z,17.80
2023-10-06T19:21:15.326Z,17.80
2023-10-06T19:23:43.644Z,17.80
2023-10-06T19:26:12.667Z,17.80
2023-10-06T19:28:41.887Z,17.80
2023-10-06T19:31:10.331Z,17.80
2023-10-06T19:33:40.528Z,17.70
2023-10-06T19:36:09.226Z,17.70
2023-10-06T19:38:36.786Z,17.70
2023-10-06T19:41:11.854Z,17.70
2023-10-06T19:43:39.551Z,17.70
2023-10-06T19:46:11.460Z,17.70
2023-10-06T19:48:40.794Z,17.70
2023-10-06T19:51:08.548Z,17.70
2023-10-06T19:53:36.813Z,17.70
2023-10-06T19:56:04.957Z,17.60
2023-10-06T19:58:33.792Z,17.70
2023-10-06T20:01:02.559Z,17.60
2023-10-06T20:03:30.481Z,17.60
2023-10-06T20:05:58.229Z,17.60
2023-10-06T20:08:25.922Z,17.60
2023-10-06T20:10:55.034Z,17.60
2023-10-06T20:13:25.261Z,17.60
2023-10-06T20:15:53.127Z,17.60
2023-10-06T20:18:21.418Z,17.60
2023-10-06T20:20:49.200Z,17.60
2023-10-06T20:23:17.940Z,17.60
2023-10-06T20:25:46.132Z,17.60
2023-10-06T20:28:14.186Z,17.60
2023-10-06T20:30:42.270Z,17.50
2023-10-06T20:33:10.067Z,17.50
2023-10-06T20:35:37.761Z,17.50
2023-10-06T20:38:05.330Z,17.50
2023-10-06T20:40:34.168Z,17.50
2023-10-06T20:43:07.782Z,17.50
2023-10-06T20:45:35.639Z,17.50
2023-10-06T20:48:07.243Z,17.50
2023-10-06T20:50:38.717Z,17.50
2023-10-06T20:53:08.696Z,17.50
2023-10-06T20:55:36.456Z,17.50
2023-10-06T20:58:04.380Z,17.50
2023-10-06T21:00:32.023Z,17.40
2023-10-06T21:02:59.859Z,17.40
2023-10-06T21:05:29.744Z,17.50
2023-10-06T21:07:59.078Z,17.50
2023-10-06T21:10:27.530Z,17.50
2023-10-06T21:12:55.345Z,17.50
2023-10-06T21:15:24.685Z,17.50
2023-10-06T21:17:55.923Z,17.50
2023-10-06T21:20:24.073Z,17.50
2023-10-06T21:22:51.728Z,17.50
2023-10-06T21:25:19.669Z,17.50
2023-10-06T21:27:47.368Z,17.50
2023-10-06T21:30:17.333Z,17.50
2023-10-06T21:32:46.259Z,17.60
2023-10-06T21:35:15.391Z,17.60
2023-10-06T21:37:43.805Z,17.60
2023-10-06T21:40:13.355Z,17.60
2023-10-06T21:42:44.117Z,17.60
2023-10-06T21:45:12.010Z,17.60
2023-10-06T21:47:39.736Z,17.60
2023-10-06T21:50:07.644Z,17.60
2023-10-06T21:52:35.169Z,17.60
2023-10-06T21:55:03.434Z,17.60
2023-10-06T21:57:32.371Z,17.60
2023-10-06T22:00:00.159Z,17.60
2023-10-06T22:02:31.053Z,17.60
2023-10-06T22:04:58.907Z,17.60
2023-10-06T22:07:27.666Z,17.60
2023-10-06T22:09:55.278Z,17.60
2023-10-06T22:12:22.841Z,17.50
2023-10-06T22:14:50.469Z,17.50
2023-10-06T22:17:18.070Z,17.50
2023-10-06T22:19:45.795Z,17.50
2023-10-06T22:22:16.241Z,17.50
2023-10-06T22:24:44.971Z,17.50
2023-10-06T22:27:12.700Z,17.50
2023-10-06T22:29:40.780Z,17.50
2023-10-06T22:32:09.119Z,17.50
2023-10-06T22:34:38.402Z,17.40
2023-10-06T22:37:18.747Z,17.40
2023-10-06T22:39:47.698Z,17.40
2023-10-06T22:42:15.361Z,17.40
2023-10-06T22:44:42.932Z,17.40
2023-10-06T22:47:10.627Z,17.40
2023-10-06T22:49:38.263Z,18.70
2023-10-06T22:52:05.888Z,17.40
2023-10-06T22:54:34.126Z,17.40
2023-10-06T22:57:01.649Z,18.40
2023-10-06T22:59:29.382Z,17.40
2023-10-06T23:01:57.065Z,17.40
2023-10-06T23:04:26.488Z,17.40
2023-10-06T23:06:54.941Z,17.30
2023-10-06T23:09:22.572Z,17.30
2023-10-06T23:11:50.496Z,17.30
2023-10-06T23:14:18.097Z,17.20
2023-10-06T23:16:46.767Z,17.20
2023-10-06T23:19:15.087Z,17.20
2023-10-06T23:21:42.942Z,17.20
2023-10-06T23:24:16.050Z,17.20
2023-10-06T23:26:44.478Z,17.10
2023-10-06T23:29:13.554Z,17.10
2023-10-06T23:31:41.553Z,17.10
2023-10-06T23:34:10.186Z,17.00
2023-10-06T23:36:38.344Z,17.00
2023-10-06T23:39:09.775Z,17.20
2023-10-06T23:41:38.520Z,16.90
2023-10-06T23:44:09.391Z,16.90
2023-10-06T23:46:37.124Z,16.90
2023-10-06T23:49:05.944Z,16.90
2023-10-06T23:51:33.822Z,16.90
2023-10-06T23:54:01.726Z,16.90
2023-10-06T23:56:32.104Z,16.80
2023-10-06T23:59:10.685Z,16.80
